Esteban Echeverria, Argentina
Current Conditions -  °F | °C
As of 2:00 PM on Wednesday 26 Nov 2014 (Local Time) from SAEZ Reporting Station
Clear Clear  
Wind Chill: 77°   Ceiling: Unl
Heat Index: 78°   Visibility: 6mi
Dew Point: 52°   Wind: 5mph
Humidity: 41%   Direction: 120°ESE
Pressure: 29.94"   Gusts: NA
Location:  34.83°S, 58.47°W
Report Text: SAEZ 261700Z 12004KT 070V210 CAVOK 25/11 Q1014
Loading
Personal Weather Stations






























Interactive Weather Map New forecast layout! Learn more

10-Day Weather Forecast

Advertisements
Track Severe Weather on mobile